createdAt,value
2016-12-04T00:00:52.296Z,0
2016-12-04T00:02:00.980Z,0
2016-12-04T00:03:09.665Z,0
2016-12-04T00:04:18.348Z,0
2016-12-04T00:05:27.060Z,0
2016-12-04T00:06:35.744Z,0
2016-12-04T00:07:44.463Z,0
2016-12-04T00:08:53.146Z,0
2016-12-04T00:10:01.859Z,0
2016-12-04T00:11:10.540Z,0
2016-12-04T00:12:19.220Z,0
2016-12-04T00:13:27.914Z,0
2016-12-04T00:14:36.606Z,0
2016-12-04T00:15:45.285Z,0
2016-12-04T00:16:53.966Z,0
2016-12-04T00:18:02.648Z,0
2016-12-04T00:19:11.649Z,0
2016-12-04T00:20:20.330Z,0
2016-12-04T00:21:29.015Z,0
2016-12-04T00:22:37.702Z,0
2016-12-04T00:23:46.388Z,0
2016-12-04T00:24:55.067Z,0
2016-12-04T00:26:03.753Z,0
2016-12-04T00:27:12.434Z,0
2016-12-04T00:28:21.114Z,0
2016-12-04T00:29:29.800Z,0
2016-12-04T00:30:38.490Z,0
2016-12-04T00:31:47.204Z,0
2016-12-04T00:32:55.906Z,0
2016-12-04T00:34:04.586Z,0
2016-12-04T00:35:13.269Z,0
2016-12-04T00:36:21.952Z,0
2016-12-04T00:37:30.637Z,0
2016-12-04T00:38:39.319Z,0
2016-12-04T00:39:48.004Z,0
2016-12-04T00:40:56.686Z,0
2016-12-04T00:42:05.367Z,0
2016-12-04T00:43:14.059Z,0
2016-12-04T00:44:22.748Z,0
2016-12-04T00:45:31.430Z,0
2016-12-04T00:46:40.113Z,0
2016-12-04T00:47:48.794Z,0
2016-12-04T00:48:57.481Z,0
2016-12-04T00:50:06.159Z,0
2016-12-04T00:51:14.837Z,0
2016-12-04T00:52:23.520Z,0
2016-12-04T00:53:32.205Z,0
2016-12-04T00:54:40.887Z,0
2016-12-04T00:55:49.567Z,0
2016-12-04T00:56:58.245Z,0
2016-12-04T00:58:06.935Z,0
2016-12-04T00:59:15.944Z,0
2016-12-04T01:00:24.627Z,0
2016-12-04T01:01:33.309Z,0
2016-12-04T01:02:41.987Z,0
2016-12-04T01:03:50.669Z,0
2016-12-04T01:04:59.355Z,0
2016-12-04T01:06:08.045Z,0
2016-12-04T01:07:16.724Z,0
2016-12-04T01:08:25.415Z,0
2016-12-04T01:09:34.103Z,0
2016-12-04T01:10:42.783Z,0
2016-12-04T01:11:51.466Z,0
2016-12-04T01:13:00.150Z,0
2016-12-04T01:14:08.835Z,0
2016-12-04T01:15:17.551Z,0
2016-12-04T01:16:26.241Z,0
2016-12-04T01:17:34.921Z,0
2016-12-04T01:18:43.611Z,0
2016-12-04T01:19:52.297Z,0
2016-12-04T01:21:00.987Z,0
2016-12-04T01:22:09.671Z,0
2016-12-04T01:23:18.354Z,0
2016-12-04T01:24:27.039Z,0
2016-12-04T01:25:35.724Z,0
2016-12-04T01:26:44.403Z,0
2016-12-04T01:27:53.082Z,0
2016-12-04T01:29:01.767Z,0
2016-12-04T01:30:10.445Z,0
2016-12-04T01:31:19.129Z,0
2016-12-04T01:32:27.814Z,0
2016-12-04T01:33:36.499Z,0
2016-12-04T01:34:45.179Z,0
2016-12-04T01:35:53.864Z,0
2016-12-04T01:37:02.546Z,0
2016-12-04T01:38:11.230Z,0
2016-12-04T01:39:19.914Z,0
2016-12-04T01:40:28.596Z,0
2016-12-04T01:41:37.281Z,0
2016-12-04T01:42:45.958Z,0
2016-12-04T01:43:54.647Z,0
2016-12-04T01:45:03.331Z,0
2016-12-04T01:46:12.011Z,0
2016-12-04T01:47:20.712Z,0
2016-12-04T01:48:29.401Z,0
2016-12-04T01:49:38.085Z,0
2016-12-04T01:50:46.774Z,0
2016-12-04T01:51:55.453Z,0
2016-12-04T01:53:04.135Z,0
2016-12-04T01:54:12.825Z,0
2016-12-04T01:55:21.541Z,0
2016-12-04T01:56:30.228Z,0
2016-12-04T01:57:38.912Z,0
2016-12-04T01:58:47.595Z,0
2016-12-04T01:59:56.279Z,0
2016-12-04T02:01:04.968Z,0
2016-12-04T02:02:13.646Z,0
2016-12-04T02:03:22.329Z,0
2016-12-04T02:04:31.018Z,0
2016-12-04T02:05:40.015Z,0
2016-12-04T02:06:48.697Z,0
2016-12-04T02:07:57.381Z,0
2016-12-04T02:09:06.063Z,0
2016-12-04T02:10:14.746Z,0
2016-12-04T02:11:23.432Z,0
2016-12-04T02:12:32.113Z,0
2016-12-04T02:13:40.796Z,0
2016-12-04T02:14:49.474Z,0
2016-12-04T02:15:58.155Z,0
2016-12-04T02:17:06.855Z,0
2016-12-04T02:18:15.542Z,0
2016-12-04T02:19:24.223Z,0
2016-12-04T02:20:32.910Z,0
2016-12-04T02:21:41.592Z,0
2016-12-04T02:22:50.270Z,0
2016-12-04T02:23:58.951Z,0
2016-12-04T02:25:07.637Z,0
2016-12-04T02:26:16.322Z,0
2016-12-04T02:27:25.108Z,0
2016-12-04T02:28:33.788Z,0
2016-12-04T02:29:42.468Z,0
2016-12-04T02:30:51.153Z,0
2016-12-04T02:31:59.837Z,0
2016-12-04T02:33:08.519Z,0
2016-12-04T02:34:17.200Z,0
2016-12-04T02:35:26.195Z,0
2016-12-04T02:36:34.871Z,0
2016-12-04T02:37:43.548Z,0
2016-12-04T02:38:52.230Z,0
2016-12-04T02:40:00.907Z,0
2016-12-04T02:41:09.593Z,0
2016-12-04T02:42:18.278Z,0
2016-12-04T02:43:26.990Z,0
2016-12-04T02:44:35.665Z,0
2016-12-04T02:45:44.343Z,0
2016-12-04T02:46:53.061Z,0
2016-12-04T02:48:01.742Z,0
2016-12-04T02:49:10.429Z,0
2016-12-04T02:50:19.115Z,0
2016-12-04T02:51:27.795Z,0
2016-12-04T02:52:36.481Z,0
2016-12-04T02:53:45.172Z,0
2016-12-04T02:54:53.854Z,0
2016-12-04T02:56:02.533Z,0
2016-12-04T02:57:11.221Z,0
2016-12-04T02:58:19.911Z,0
2016-12-04T02:59:28.595Z,0
2016-12-04T03:00:37.283Z,0
2016-12-04T03:01:45.969Z,0
2016-12-04T03:02:54.658Z,0
2016-12-04T03:04:03.345Z,0
2016-12-04T03:05:12.027Z,0
2016-12-04T03:06:20.711Z,0
2016-12-04T03:07:29.545Z,0
2016-12-04T03:08:38.226Z,0
2016-12-04T03:09:46.909Z,0
2016-12-04T03:10:55.594Z,0
2016-12-04T03:12:04.297Z,0
2016-12-04T03:13:13.326Z,0
2016-12-04T03:14:22.003Z,0
2016-12-04T03:15:30.685Z,0
2016-12-04T03:16:39.368Z,0
2016-12-04T03:17:48.048Z,0
2016-12-04T03:18:56.783Z,0
2016-12-04T03:20:05.471Z,0
2016-12-04T03:21:14.146Z,0
2016-12-04T03:22:22.827Z,0
2016-12-04T03:23:31.820Z,0
2016-12-04T03:24:40.498Z,0
2016-12-04T03:25:49.181Z,0
2016-12-04T03:26:57.892Z,0
2016-12-04T03:28:06.571Z,0
2016-12-04T03:29:15.252Z,0
2016-12-04T03:30:23.932Z,0
2016-12-04T03:31:32.614Z,0
2016-12-04T03:32:41.294Z,0
2016-12-04T03:33:49.977Z,0
2016-12-04T03:34:58.657Z,0
2016-12-04T03:36:07.338Z,0
2016-12-04T03:37:16.023Z,0
2016-12-04T03:38:24.700Z,0
2016-12-04T03:39:33.385Z,0
2016-12-04T03:40:42.071Z,0
2016-12-04T03:41:50.752Z,0
2016-12-04T03:43:00.151Z,0
2016-12-04T03:44:08.834Z,0
2016-12-04T03:45:17.516Z,0
2016-12-04T03:46:26.209Z,0
2016-12-04T03:47:34.895Z,0
2016-12-04T03:48:43.576Z,0
2016-12-04T03:49:52.259Z,0
2016-12-04T03:51:00.943Z,0
2016-12-04T03:52:09.623Z,0
2016-12-04T03:53:18.302Z,0
2016-12-04T03:54:26.979Z,0
2016-12-04T03:55:35.657Z,0
2016-12-04T03:56:44.340Z,0
2016-12-04T03:57:53.020Z,0
2016-12-04T03:59:01.699Z,0
2016-12-04T04:00:10.700Z,0
2016-12-04T04:01:19.384Z,0
2016-12-04T04:02:28.093Z,0
2016-12-04T04:03:36.773Z,0
2016-12-04T04:04:45.453Z,0
2016-12-04T04:05:54.142Z,0
2016-12-04T04:07:02.822Z,0
2016-12-04T04:08:11.506Z,0
2016-12-04T04:09:20.185Z,0
2016-12-04T04:10:28.871Z,0
2016-12-04T04:11:37.566Z,0
2016-12-04T04:12:46.248Z,0
2016-12-04T04:13:54.930Z,0
2016-12-04T04:15:03.613Z,0
2016-12-04T04:16:12.360Z,0
2016-12-04T04:17:21.041Z,0
2016-12-04T04:18:29.728Z,0
2016-12-04T04:19:38.411Z,0
2016-12-04T04:20:47.093Z,0
2016-12-04T04:21:56.090Z,0
2016-12-04T04:23:04.775Z,0
2016-12-04T04:24:13.457Z,0
2016-12-04T04:25:22.144Z,0
2016-12-04T04:26:30.856Z,0
2016-12-04T04:27:39.540Z,0
2016-12-04T04:28:48.219Z,0
2016-12-04T04:29:56.904Z,0
2016-12-04T04:31:05.906Z,0
2016-12-04T04:32:14.587Z,0
2016-12-04T04:33:23.275Z,0
2016-12-04T04:34:31.962Z,0
2016-12-04T04:35:40.644Z,0
2016-12-04T04:36:49.329Z,0
2016-12-04T04:37:58.020Z,0
2016-12-04T04:39:06.705Z,0
2016-12-04T04:40:15.386Z,0
2016-12-04T04:41:24.069Z,0
2016-12-04T04:42:32.759Z,0
2016-12-04T04:43:41.448Z,0
2016-12-04T04:44:50.158Z,0
2016-12-04T04:45:58.838Z,0
2016-12-04T04:47:07.839Z,0
2016-12-04T04:48:16.557Z,0
2016-12-04T04:49:25.241Z,0
2016-12-04T04:50:34.242Z,0
2016-12-04T04:51:42.930Z,0
2016-12-04T04:52:51.619Z,0
2016-12-04T04:54:00.306Z,0
2016-12-04T04:55:08.993Z,0
2016-12-04T04:56:17.676Z,0
2016-12-04T04:57:26.359Z,0
2016-12-04T04:58:35.044Z,0
2016-12-04T04:59:43.726Z,0
2016-12-04T05:00:52.411Z,0
2016-12-04T05:02:01.091Z,0
2016-12-04T05:03:09.774Z,0
2016-12-04T05:04:18.457Z,0
2016-12-04T05:05:27.138Z,0
2016-12-04T05:06:35.823Z,0
2016-12-04T05:07:44.502Z,0
2016-12-04T05:08:53.188Z,0
2016-12-04T05:10:01.903Z,0
2016-12-04T05:11:10.590Z,0
2016-12-04T05:12:19.269Z,0
2016-12-04T05:13:27.951Z,0
2016-12-04T05:14:36.636Z,0
2016-12-04T05:15:45.633Z,0
2016-12-04T05:16:54.315Z,0
2016-12-04T05:18:03.000Z,0
2016-12-04T05:19:11.686Z,0
2016-12-04T05:20:20.370Z,0
2016-12-04T05:21:29.053Z,0
2016-12-04T05:22:37.741Z,0
2016-12-04T05:23:46.419Z,0
2016-12-04T05:24:55.102Z,0
2016-12-04T05:26:03.787Z,0
2016-12-04T05:27:12.471Z,0
2016-12-04T05:28:21.150Z,0
2016-12-04T05:29:29.838Z,0
2016-12-04T05:30:38.519Z,0
2016-12-04T05:31:47.522Z,0
2016-12-04T05:32:56.209Z,0
2016-12-04T05:34:04.897Z,0
2016-12-04T05:35:13.585Z,0
2016-12-04T05:36:22.271Z,0
2016-12-04T05:37:30.951Z,0
2016-12-04T05:38:39.632Z,0
2016-12-04T05:39:48.314Z,0
2016-12-04T05:40:57.006Z,0
2016-12-04T05:42:05.694Z,0
2016-12-04T05:43:14.377Z,0
2016-12-04T05:44:23.061Z,0
2016-12-04T05:45:31.748Z,0
2016-12-04T05:46:40.431Z,0
2016-12-04T05:47:49.120Z,0
2016-12-04T05:48:57.809Z,0
2016-12-04T05:50:06.493Z,0
2016-12-04T05:51:15.185Z,0
2016-12-04T05:52:23.871Z,0
2016-12-04T05:53:32.562Z,0
2016-12-04T05:54:41.248Z,0
2016-12-04T05:55:49.932Z,0
2016-12-04T05:56:58.627Z,0
2016-12-04T05:58:07.305Z,0
2016-12-04T05:59:15.987Z,0
2016-12-04T06:00:24.679Z,0
2016-12-04T06:01:33.691Z,0
2016-12-04T06:02:42.368Z,0
2016-12-04T06:03:51.045Z,0
2016-12-04T06:04:59.728Z,0
2016-12-04T06:06:08.414Z,0
2016-12-04T06:07:17.102Z,0
2016-12-04T06:08:25.814Z,0
2016-12-04T06:09:34.498Z,0
2016-12-04T06:10:43.183Z,0
2016-12-04T06:11:51.871Z,0
2016-12-04T06:13:00.555Z,0
2016-12-04T06:14:09.242Z,0
2016-12-04T06:15:17.931Z,0
2016-12-04T06:16:26.612Z,0
2016-12-04T06:17:35.291Z,0
2016-12-04T06:18:43.971Z,0
2016-12-04T06:19:52.654Z,0
2016-12-04T06:21:01.335Z,0
2016-12-04T06:22:10.019Z,0
2016-12-04T06:23:19.041Z,0
2016-12-04T06:24:27.722Z,0
2016-12-04T06:25:36.402Z,0
2016-12-04T06:26:45.092Z,0
2016-12-04T06:27:53.786Z,0
2016-12-04T06:29:02.470Z,0
2016-12-04T06:30:11.158Z,0
2016-12-04T06:31:19.839Z,0
2016-12-04T06:32:28.523Z,0
2016-12-04T06:33:37.210Z,0
2016-12-04T06:34:45.897Z,0
2016-12-04T06:35:54.611Z,0
2016-12-04T06:37:03.293Z,0
2016-12-04T06:38:11.984Z,0
2016-12-04T06:39:20.666Z,0
2016-12-04T06:40:29.374Z,0
2016-12-04T06:41:38.061Z,0
2016-12-04T06:42:46.747Z,0
2016-12-04T06:43:55.429Z,0
2016-12-04T06:45:04.114Z,0
2016-12-04T06:46:12.800Z,0
2016-12-04T06:47:21.481Z,0
2016-12-04T06:48:30.174Z,0
2016-12-04T06:49:38.851Z,0
2016-12-04T06:50:47.568Z,0
2016-12-04T06:51:56.253Z,0
2016-12-04T06:53:04.932Z,0
2016-12-04T06:54:13.616Z,0
2016-12-04T06:55:22.301Z,0
2016-12-04T06:56:30.984Z,0
2016-12-04T06:57:39.665Z,0
2016-12-04T06:58:48.349Z,0
2016-12-04T06:59:57.031Z,0
2016-12-04T07:01:05.722Z,0
2016-12-04T07:02:14.455Z,0
2016-12-04T07:03:23.141Z,0
2016-12-04T07:04:31.824Z,0
2016-12-04T07:05:40.507Z,0
2016-12-04T07:06:49.189Z,0
2016-12-04T07:07:57.878Z,0
2016-12-04T07:09:06.566Z,0
2016-12-04T07:10:15.256Z,0
2016-12-04T07:11:23.935Z,0
2016-12-04T07:12:32.618Z,0
2016-12-04T07:13:41.304Z,0
2016-12-04T07:14:49.987Z,0
2016-12-04T07:15:58.678Z,4
2016-12-04T07:17:07.364Z,4
2016-12-04T07:18:16.050Z,0
2016-12-04T07:19:24.737Z,0
2016-12-04T07:20:33.733Z,4
2016-12-04T07:21:42.412Z,4
2016-12-04T07:22:51.091Z,4
2016-12-04T07:23:59.776Z,4
2016-12-04T07:25:08.462Z,8
2016-12-04T07:26:17.146Z,4
2016-12-04T07:27:25.829Z,8
2016-12-04T07:28:34.516Z,8
2016-12-04T07:29:43.198Z,8
2016-12-04T07:30:51.876Z,8
2016-12-04T07:32:00.559Z,12
2016-12-04T07:33:09.246Z,12
2016-12-04T07:34:17.929Z,12
2016-12-04T07:35:26.611Z,12
2016-12-04T07:36:35.292Z,16
2016-12-04T07:37:44.009Z,16
2016-12-04T07:38:52.695Z,20
2016-12-04T07:40:01.386Z,24
2016-12-04T07:41:10.067Z,24
2016-12-04T07:42:18.751Z,28
2016-12-04T07:43:27.437Z,28
2016-12-04T07:44:36.127Z,36
2016-12-04T07:45:44.813Z,32
2016-12-04T07:46:53.494Z,36
2016-12-04T07:48:02.180Z,44
2016-12-04T07:49:10.867Z,44
2016-12-04T07:50:19.547Z,48
2016-12-04T07:51:28.228Z,52
2016-12-04T07:52:36.923Z,52
2016-12-04T07:53:45.608Z,56
2016-12-04T07:54:54.290Z,56
2016-12-04T07:56:02.974Z,56
2016-12-04T07:57:11.659Z,56
2016-12-04T07:58:20.345Z,60
2016-12-04T07:59:29.036Z,68
2016-12-04T08:00:37.723Z,72
2016-12-04T08:01:46.415Z,80
2016-12-04T08:02:55.104Z,84
2016-12-04T08:04:03.787Z,84
2016-12-04T08:05:12.468Z,88
2016-12-04T08:06:21.149Z,88
2016-12-04T08:07:29.835Z,92
2016-12-04T08:08:38.520Z,100
2016-12-04T08:09:47.243Z,108
2016-12-04T08:10:55.931Z,116
2016-12-04T08:12:04.614Z,124
2016-12-04T08:13:13.297Z,128
2016-12-04T08:14:21.974Z,140
2016-12-04T08:15:30.654Z,152
2016-12-04T08:16:39.339Z,164
2016-12-04T08:17:48.018Z,184
2016-12-04T08:18:56.701Z,192
2016-12-04T08:20:05.389Z,208
2016-12-04T08:21:14.075Z,216
2016-12-04T08:22:22.756Z,224
2016-12-04T08:23:31.440Z,236
2016-12-04T08:24:40.127Z,252
2016-12-04T08:25:48.807Z,268
2016-12-04T08:26:57.493Z,280
2016-12-04T08:28:06.181Z,292
2016-12-04T08:29:15.505Z,304
2016-12-04T08:30:24.192Z,312
2016-12-04T08:31:32.884Z,324
2016-12-04T08:32:41.569Z,328
2016-12-04T08:33:50.249Z,340
2016-12-04T08:34:58.941Z,348
2016-12-04T08:36:07.958Z,360
2016-12-04T08:37:16.637Z,364
2016-12-04T08:38:25.331Z,380
2016-12-04T08:39:34.013Z,396
2016-12-04T08:40:42.701Z,416
2016-12-04T08:41:51.384Z,436
2016-12-04T08:43:00.072Z,464
2016-12-04T08:44:08.764Z,496
2016-12-04T08:45:17.454Z,532
2016-12-04T08:46:26.137Z,564
2016-12-04T08:47:34.827Z,596
2016-12-04T08:48:43.508Z,632
2016-12-04T08:49:52.235Z,684
2016-12-04T08:51:00.920Z,736
2016-12-04T08:52:09.607Z,772
2016-12-04T08:53:18.291Z,804
2016-12-04T08:54:26.977Z,836
2016-12-04T08:55:35.977Z,852
2016-12-04T08:56:44.661Z,872
2016-12-04T08:57:53.361Z,884
2016-12-04T08:59:02.042Z,904
2016-12-04T09:00:10.727Z,928
2016-12-04T09:01:19.442Z,960
2016-12-04T09:02:28.127Z,992
2016-12-04T09:03:36.811Z,1028
2016-12-04T09:04:45.516Z,1060
2016-12-04T09:05:54.198Z,1088
2016-12-04T09:07:02.888Z,1112
2016-12-04T09:08:11.573Z,1156
2016-12-04T09:09:20.265Z,1204
2016-12-04T09:10:28.945Z,1252
2016-12-04T09:11:37.626Z,1292
2016-12-04T09:12:46.311Z,1336
2016-12-04T09:13:54.993Z,1384
2016-12-04T09:15:03.678Z,1440
2016-12-04T09:16:12.363Z,1492
2016-12-04T09:17:21.089Z,1528
2016-12-04T09:18:29.798Z,1568
2016-12-04T09:19:38.514Z,1596
2016-12-04T09:20:47.194Z,1640
2016-12-04T09:21:55.876Z,1684
2016-12-04T09:23:04.560Z,1724
2016-12-04T09:24:13.249Z,1764
2016-12-04T09:25:21.935Z,1824
2016-12-04T09:26:30.618Z,1908
2016-12-04T09:27:39.305Z,1964
2016-12-04T09:28:47.991Z,1992
2016-12-04T09:29:56.675Z,2048
2016-12-04T09:31:05.360Z,2148
2016-12-04T09:32:14.046Z,2220
2016-12-04T09:33:22.734Z,2316
2016-12-04T09:34:31.745Z,2416
2016-12-04T09:35:40.427Z,2488
2016-12-04T09:36:49.111Z,2548
2016-12-04T09:37:57.798Z,2636
2016-12-04T09:39:06.490Z,2692
2016-12-04T09:40:15.175Z,2708
2016-12-04T09:41:23.877Z,2696
2016-12-04T09:42:32.561Z,2716
2016-12-04T09:43:41.569Z,2724
2016-12-04T09:44:50.258Z,2696
2016-12-04T09:45:58.948Z,2728
2016-12-04T09:47:07.635Z,2720
2016-12-04T09:48:16.313Z,2644
2016-12-04T09:49:25.004Z,2588
2016-12-04T09:50:33.690Z,2576
2016-12-04T09:51:42.373Z,2560
2016-12-04T09:52:51.056Z,2556
2016-12-04T09:53:59.744Z,2580
2016-12-04T09:55:08.437Z,2628
2016-12-04T09:56:17.124Z,2664
2016-12-04T09:57:25.835Z,2688
2016-12-04T09:58:34.518Z,2740
2016-12-04T09:59:43.202Z,2776
2016-12-04T10:00:51.893Z,2820
2016-12-04T10:02:00.890Z,2860
2016-12-04T10:03:09.570Z,2896
2016-12-04T10:04:18.261Z,2940
2016-12-04T10:05:26.945Z,2968
2016-12-04T10:06:35.628Z,2988
2016-12-04T10:07:44.312Z,3020
2016-12-04T10:08:53.309Z,3060
2016-12-04T10:10:01.993Z,3088
2016-12-04T10:11:10.687Z,3120
2016-12-04T10:12:19.370Z,3152
2016-12-04T10:13:28.058Z,3184
2016-12-04T10:14:36.742Z,3212
2016-12-04T10:15:45.744Z,3236
2016-12-04T10:16:54.426Z,3252
2016-12-04T10:18:03.424Z,3248
2016-12-04T10:19:12.114Z,3244
2016-12-04T10:20:20.805Z,3248
2016-12-04T10:21:29.488Z,3256
2016-12-04T10:22:38.179Z,3276
2016-12-04T10:23:46.870Z,3312
2016-12-04T10:24:55.554Z,3352
2016-12-04T10:26:04.240Z,3408
2016-12-04T10:27:12.937Z,3476
2016-12-04T10:28:21.619Z,3560
2016-12-04T10:29:30.336Z,3648
2016-12-04T10:30:39.022Z,3740
2016-12-04T10:31:48.022Z,3820
2016-12-04T10:32:56.707Z,3928
2016-12-04T10:34:05.421Z,4080
2016-12-04T10:35:14.103Z,4296
2016-12-04T10:36:22.814Z,4560
2016-12-04T10:37:31.495Z,4808
2016-12-04T10:38:40.182Z,5384
2016-12-04T10:39:48.872Z,5764
2016-12-04T10:40:57.557Z,6484
2016-12-04T10:42:06.246Z,7028
2016-12-04T10:43:15.256Z,7208
2016-12-04T10:44:23.942Z,7344
2016-12-04T10:45:32.631Z,7216
2016-12-04T10:46:41.317Z,7172
2016-12-04T10:47:50.005Z,7272
2016-12-04T10:48:59.000Z,7136
2016-12-04T10:50:07.689Z,7368
2016-12-04T10:51:16.385Z,7464
2016-12-04T10:52:25.074Z,7348
2016-12-04T10:53:33.763Z,7848
2016-12-04T10:54:42.765Z,7916
2016-12-04T10:55:51.460Z,8212
2016-12-04T10:57:00.150Z,7624
2016-12-04T10:58:08.839Z,6832
2016-12-04T10:59:17.526Z,6432
2016-12-04T11:00:26.212Z,6328
2016-12-04T11:01:34.900Z,6224
2016-12-04T11:02:43.585Z,6208
2016-12-04T11:03:52.274Z,6192
2016-12-04T11:05:00.962Z,6992
2016-12-04T11:06:09.650Z,7268
2016-12-04T11:07:18.347Z,7248
2016-12-04T11:08:27.032Z,6860
2016-12-04T11:09:35.719Z,6764
2016-12-04T11:10:44.409Z,7684
2016-12-04T11:11:53.103Z,8152
2016-12-04T11:13:01.800Z,8256
2016-12-04T11:14:10.490Z,8540
2016-12-04T11:15:19.178Z,8344
2016-12-04T11:16:27.866Z,8220
2016-12-04T11:17:36.553Z,7964
2016-12-04T11:18:45.242Z,7520
2016-12-04T11:19:53.939Z,7500
2016-12-04T11:21:02.635Z,7436
2016-12-04T11:22:11.323Z,7388
2016-12-04T11:23:20.017Z,7680
2016-12-04T11:24:28.708Z,7772
2016-12-04T11:25:37.409Z,7536
2016-12-04T11:26:46.099Z,7688
2016-12-04T11:27:54.788Z,7660
2016-12-04T11:29:03.794Z,7348
2016-12-04T11:30:12.487Z,7152
2016-12-04T11:31:21.226Z,7296
2016-12-04T11:32:30.226Z,7016
2016-12-04T11:33:38.912Z,6812
2016-12-04T11:34:47.600Z,6616
2016-12-04T11:35:56.287Z,6500
2016-12-04T11:37:04.984Z,6644
2016-12-04T11:38:13.671Z,7104
2016-12-04T11:39:22.367Z,7232
2016-12-04T11:40:31.382Z,7732
2016-12-04T11:41:40.076Z,7352
2016-12-04T11:42:48.770Z,7616
2016-12-04T11:43:57.485Z,7788
2016-12-04T11:45:06.170Z,7492
2016-12-04T11:46:14.866Z,7368
2016-12-04T11:47:23.558Z,7148
2016-12-04T11:48:32.248Z,6848
2016-12-04T11:49:40.935Z,6556
2016-12-04T11:50:49.624Z,6544
2016-12-04T11:51:58.317Z,6568
2016-12-04T11:53:07.006Z,6452
2016-12-04T11:54:15.690Z,6040
2016-12-04T11:55:24.383Z,5772
2016-12-04T11:56:33.072Z,5672
2016-12-04T11:57:41.762Z,5644
2016-12-04T11:58:50.457Z,5608
2016-12-04T11:59:59.178Z,5656
2016-12-04T12:01:07.871Z,5648
2016-12-04T12:02:16.571Z,5820
2016-12-04T12:03:25.262Z,5916
2016-12-04T12:04:33.947Z,5676
2016-12-04T12:05:42.637Z,5108
2016-12-04T12:06:51.323Z,5568
2016-12-04T12:08:00.328Z,5280
2016-12-04T12:09:09.015Z,5684
2016-12-04T12:10:17.703Z,6288
2016-12-04T12:11:26.421Z,6716
2016-12-04T12:12:35.110Z,6976
2016-12-04T12:13:43.805Z,7448
2016-12-04T12:14:53.124Z,7188
2016-12-04T12:16:01.816Z,7416
2016-12-04T12:17:10.510Z,7668
2016-12-04T12:18:19.201Z,7036
2016-12-04T12:19:27.895Z,6724
2016-12-04T12:20:36.587Z,6736
2016-12-04T12:21:45.280Z,7072
2016-12-04T12:22:56.612Z,7144
2016-12-04T12:24:05.325Z,6916
2016-12-04T12:25:14.025Z,6420
2016-12-04T12:26:22.719Z,6436
2016-12-04T12:27:31.413Z,6836
2016-12-04T12:28:40.569Z,6556
2016-12-04T12:29:49.262Z,6328
2016-12-04T12:30:57.958Z,6024
2016-12-04T12:32:06.658Z,5824
2016-12-04T12:33:15.348Z,5404
2016-12-04T12:34:24.388Z,4880
2016-12-04T12:35:33.075Z,4196
2016-12-04T12:36:41.759Z,3980
2016-12-04T12:37:50.770Z,4020
2016-12-04T12:38:59.777Z,4432
2016-12-04T12:40:08.518Z,4544
2016-12-04T12:41:17.205Z,4860
2016-12-04T12:42:25.905Z,5152
2016-12-04T12:43:34.596Z,5304
2016-12-04T12:44:43.295Z,5488
2016-12-04T12:45:52.034Z,4612
2016-12-04T12:47:00.722Z,4280
2016-12-04T12:48:09.410Z,3736
2016-12-04T12:49:18.109Z,3456
2016-12-04T12:50:26.795Z,3232
2016-12-04T12:51:35.541Z,3248
2016-12-04T12:52:44.237Z,3392
2016-12-04T12:53:52.925Z,3784
2016-12-04T12:55:01.616Z,4096
2016-12-04T12:56:10.630Z,4216
2016-12-04T12:57:19.367Z,4392
2016-12-04T12:58:28.049Z,4116
2016-12-04T12:59:36.762Z,4512
2016-12-04T13:00:45.448Z,4664
2016-12-04T13:01:54.138Z,4668
2016-12-04T13:03:02.935Z,5264
2016-12-04T13:04:11.623Z,5132
2016-12-04T13:05:20.312Z,4596
2016-12-04T13:06:28.998Z,4088
2016-12-04T13:07:37.684Z,3996
2016-12-04T13:08:46.426Z,3912
2016-12-04T13:09:55.126Z,3744
2016-12-04T13:11:03.816Z,2888
2016-12-04T13:12:12.504Z,2204
2016-12-04T13:13:21.203Z,1824
2016-12-04T13:14:30.266Z,1664
2016-12-04T13:15:38.955Z,1536
2016-12-04T13:16:47.646Z,1420
2016-12-04T13:17:56.332Z,1312
2016-12-04T13:19:05.336Z,1228
2016-12-04T13:20:14.074Z,1152
2016-12-04T13:21:22.773Z,1084
2016-12-04T13:22:31.471Z,1008
2016-12-04T13:23:40.155Z,936
2016-12-04T13:24:48.843Z,872
2016-12-04T13:25:57.580Z,804
2016-12-04T13:27:06.270Z,736
2016-12-04T13:28:14.959Z,676
2016-12-04T13:29:23.645Z,616
2016-12-04T13:30:32.652Z,568
2016-12-04T13:31:41.388Z,528
2016-12-04T13:32:50.101Z,484
2016-12-04T13:33:58.783Z,444
2016-12-04T13:35:07.475Z,408
2016-12-04T13:36:16.161Z,384
2016-12-04T13:37:25.216Z,364
2016-12-04T13:38:33.900Z,340
2016-12-04T13:39:42.583Z,328
2016-12-04T13:40:51.268Z,312
2016-12-04T13:41:59.953Z,300
2016-12-04T13:43:08.690Z,284
2016-12-04T13:44:17.374Z,272
2016-12-04T13:45:26.055Z,260
2016-12-04T13:46:34.741Z,252
2016-12-04T13:47:43.427Z,240
2016-12-04T13:48:52.160Z,228
2016-12-04T13:50:00.842Z,216
2016-12-04T13:51:09.538Z,204
2016-12-04T13:52:18.222Z,192
2016-12-04T13:53:26.907Z,184
2016-12-04T13:54:35.643Z,172
2016-12-04T13:55:44.330Z,164
2016-12-04T13:56:53.010Z,156
2016-12-04T13:58:01.699Z,148
2016-12-04T13:59:10.388Z,140
2016-12-04T14:00:19.119Z,132
2016-12-04T14:01:27.844Z,128
2016-12-04T14:02:36.533Z,116
2016-12-04T14:03:45.217Z,116
2016-12-04T14:04:53.904Z,108
2016-12-04T14:06:02.642Z,104
2016-12-04T14:07:11.331Z,100
2016-12-04T14:08:20.016Z,96
2016-12-04T14:09:28.702Z,88
2016-12-04T14:10:37.398Z,84
2016-12-04T14:11:46.131Z,80
2016-12-04T14:12:54.820Z,76
2016-12-04T14:14:03.534Z,72
2016-12-04T14:15:12.222Z,68
2016-12-04T14:16:20.907Z,60
2016-12-04T14:17:29.646Z,56
2016-12-04T14:18:38.334Z,52
2016-12-04T14:19:47.021Z,52
2016-12-04T14:20:55.710Z,48
2016-12-04T14:22:04.390Z,44
2016-12-04T14:23:13.180Z,40
2016-12-04T14:24:21.865Z,40
2016-12-04T14:25:30.549Z,36
2016-12-04T14:26:39.234Z,32
2016-12-04T14:27:47.918Z,32
2016-12-04T14:28:56.647Z,28
2016-12-04T14:30:05.654Z,24
2016-12-04T14:31:14.340Z,20
2016-12-04T14:32:23.028Z,20
2016-12-04T14:33:31.712Z,20
2016-12-04T14:34:40.443Z,16
2016-12-04T14:35:49.128Z,16
2016-12-04T14:36:57.810Z,16
2016-12-04T14:38:06.499Z,12
2016-12-04T14:39:15.185Z,12
2016-12-04T14:40:23.921Z,8
2016-12-04T14:41:32.608Z,8
2016-12-04T14:42:41.292Z,4
2016-12-04T14:43:49.976Z,8
2016-12-04T14:44:58.657Z,4
2016-12-04T14:46:07.712Z,4
2016-12-04T14:47:16.396Z,4
2016-12-04T14:48:25.082Z,4
2016-12-04T14:49:33.763Z,4
2016-12-04T14:50:42.442Z,4
2016-12-04T14:51:51.172Z,0
2016-12-04T14:52:59.856Z,0
2016-12-04T14:54:08.545Z,0
2016-12-04T14:55:17.229Z,4
2016-12-04T14:56:25.909Z,4
2016-12-04T14:57:34.650Z,4
2016-12-04T14:58:43.337Z,0
2016-12-04T14:59:52.027Z,0
2016-12-04T15:01:00.712Z,0
2016-12-04T15:02:09.394Z,0
2016-12-04T15:03:18.130Z,0
2016-12-04T15:04:26.815Z,0
2016-12-04T15:05:35.497Z,0
2016-12-04T15:06:44.181Z,0
2016-12-04T15:07:52.877Z,0
2016-12-04T15:09:01.621Z,0
2016-12-04T15:10:10.305Z,0
2016-12-04T15:11:18.988Z,0
2016-12-04T15:12:27.674Z,0
2016-12-04T15:13:36.357Z,0
2016-12-04T15:14:45.096Z,0
2016-12-04T15:15:53.796Z,0
2016-12-04T15:17:02.487Z,0
2016-12-04T15:18:11.172Z,0
2016-12-04T15:19:19.865Z,0
2016-12-04T15:20:28.598Z,0
2016-12-04T15:21:37.297Z,0
2016-12-04T15:22:45.979Z,0
2016-12-04T15:23:54.665Z,0
2016-12-04T15:25:03.367Z,0
2016-12-04T15:26:12.114Z,0
2016-12-04T15:27:20.803Z,0
2016-12-04T15:28:29.485Z,0
2016-12-04T15:29:38.172Z,0
2016-12-04T15:30:46.857Z,0
2016-12-04T15:31:55.594Z,0
2016-12-04T15:33:04.277Z,0
2016-12-04T15:34:12.958Z,0
2016-12-04T15:35:21.642Z,0
2016-12-04T15:36:30.330Z,0
2016-12-04T15:37:39.062Z,0
2016-12-04T15:38:47.748Z,0
2016-12-04T15:39:56.432Z,0
2016-12-04T15:41:05.116Z,0
2016-12-04T15:42:13.806Z,0
2016-12-04T15:43:22.541Z,0
2016-12-04T15:44:31.253Z,0
2016-12-04T15:45:39.937Z,0
2016-12-04T15:46:48.647Z,0
2016-12-04T15:47:57.331Z,0
2016-12-04T15:49:06.062Z,0
2016-12-04T15:50:14.746Z,0
2016-12-04T15:51:23.428Z,0
2016-12-04T15:52:32.120Z,0
2016-12-04T15:53:40.810Z,0
2016-12-04T15:54:49.544Z,0
2016-12-04T15:55:58.231Z,0
2016-12-04T15:57:06.914Z,0
2016-12-04T15:58:15.601Z,0
2016-12-04T15:59:24.293Z,0
2016-12-04T16:00:33.354Z,0
2016-12-04T16:01:42.043Z,0
2016-12-04T16:02:50.733Z,0
2016-12-04T16:03:59.420Z,0
2016-12-04T16:05:08.103Z,0
2016-12-04T16:06:16.837Z,0
2016-12-04T16:07:25.522Z,0
2016-12-04T16:08:34.211Z,0
2016-12-04T16:09:42.893Z,0
2016-12-04T16:10:51.591Z,0
2016-12-04T16:12:00.337Z,0
2016-12-04T16:13:09.022Z,0
2016-12-04T16:14:17.719Z,0
2016-12-04T16:15:26.434Z,0
2016-12-04T16:16:35.115Z,0
2016-12-04T16:17:43.900Z,0